Terminal Aerodrome Forecast
Issued by NWS

Home | Current Version | Previous Version | Text Only | Print | Product List | Glossary On
Versions: 1 2 3 4 5 6 7 8 9 10 11 12 13 14 15 16 17 18 19 20 21 22 23
000
FTUS44 KLUB 212300
TAFCDS
TAF
KCDS 212332Z 2200/2224 07011KT P6SM VCTS SCT035CB BKN060 OVC110
      TEMPO 2200/2202 -TSRA BKN030CB
     FM220500 11009KT P6SM SCT060 BKN110=

USA.gov is the U.S. government's official web portal to all federal, state and local government web resources and services.